sensor_id;sensor_type;location;lat;lon;timestamp;P1;durP1;ratioP1;P2;durP2;ratioP2
51491;SDS011;37569;50.548;8.778;2023-09-19T00:01:34;3.7;;;1.9;;
51491;SDS011;37569;50.548;8.778;2023-09-19T00:06:35;2;;;1.8;;
51491;SDS011;37569;50.548;8.778;2023-09-19T00:11:36;3.1;;;2.2;;
51491;SDS011;37569;50.548;8.778;2023-09-19T00:16:36;2.6;;;2;;
51491;SDS011;37569;50.548;8.778;2023-09-19T00:21:37;2.7;;;2;;
51491;SDS011;37569;50.548;8.778;2023-09-19T00:26:38;3.1;;;2;;
51491;SDS011;37569;50.548;8.778;2023-09-19T00:31:39;3.1;;;2.3;;
51491;SDS011;37569;50.548;8.778;2023-09-19T00:36:39;2.6;;;1.9;;
51491;SDS011;37569;50.548;8.778;2023-09-19T00:41:40;3.6;;;2.1;;
51491;SDS011;37569;50.548;8.778;2023-09-19T00:46:41;2.5;;;2.2;;
51491;SDS011;37569;50.548;8.778;2023-09-19T00:51:42;3.7;;;2.3;;
51491;SDS011;37569;50.548;8.778;2023-09-19T00:56:43;2.5;;;2.1;;
51491;SDS011;37569;50.548;8.778;2023-09-19T01:01:44;3.6;;;2.3;;
51491;SDS011;37569;50.548;8.778;2023-09-19T01:06:44;2.6;;;2;;
51491;SDS011;37569;50.548;8.778;2023-09-19T01:11:46;3.8;;;2.3;;
51491;SDS011;37569;50.548;8.778;2023-09-19T01:16:48;3.4;;;2.4;;
51491;SDS011;37569;50.548;8.778;2023-09-19T01:21:48;3.6;;;2.4;;
51491;SDS011;37569;50.548;8.778;2023-09-19T01:26:54;3.2;;;2.2;;
51491;SDS011;37569;50.548;8.778;2023-09-19T01:31:48;5.2;;;2.4;;
51491;SDS011;37569;50.548;8.778;2023-09-19T01:36:49;3.7;;;2.3;;
51491;SDS011;37569;50.548;8.778;2023-09-19T01:41:53;3.4;;;2.2;;
51491;SDS011;37569;50.548;8.778;2023-09-19T01:46:51;4.3;;;2.4;;
51491;SDS011;37569;50.548;8.778;2023-09-19T01:51:53;3.4;;;2.3;;
51491;SDS011;37569;50.548;8.778;2023-09-19T01:56:54;4.8;;;2.6;;
51491;SDS011;37569;50.548;8.778;2023-09-19T02:01:53;3.3;;;2.4;;
51491;SDS011;37569;50.548;8.778;2023-09-19T02:06:54;3.5;;;2.4;;
51491;SDS011;37569;50.548;8.778;2023-09-19T02:11:54;4.7;;;2.5;;
51491;SDS011;37569;50.548;8.778;2023-09-19T02:16:55;3.2;;;2.4;;
51491;SDS011;37569;50.548;8.778;2023-09-19T02:21:56;3.8;;;2.5;;
51491;SDS011;37569;50.548;8.778;2023-09-19T02:26:57;4.6;;;2.7;;
51491;SDS011;37569;50.548;8.778;2023-09-19T02:31:57;4.1;;;2.5;;
51491;SDS011;37569;50.548;8.778;2023-09-19T02:36:58;6.3;;;2.7;;
51491;SDS011;37569;50.548;8.778;2023-09-19T02:42:00;3.3;;;2.3;;
51491;SDS011;37569;50.548;8.778;2023-09-19T02:47:00;4;;;2.4;;
51491;SDS011;37569;50.548;8.778;2023-09-19T02:52:00;3.9;;;2.4;;
51491;SDS011;37569;50.548;8.778;2023-09-19T02:57:01;3.5;;;2.4;;
51491;SDS011;37569;50.548;8.778;2023-09-19T03:02:02;4.6;;;2.4;;
51491;SDS011;37569;50.548;8.778;2023-09-19T03:07:03;4.8;;;2.6;;
51491;SDS011;37569;50.548;8.778;2023-09-19T03:12:03;3.8;;;2.3;;
51491;SDS011;37569;50.548;8.778;2023-09-19T03:17:04;2.7;;;2.2;;
51491;SDS011;37569;50.548;8.778;2023-09-19T03:22:06;4.5;;;2.1;;
51491;SDS011;37569;50.548;8.778;2023-09-19T03:27:05;3.1;;;2.1;;
51491;SDS011;37569;50.548;8.778;2023-09-19T03:32:06;3.5;;;2.1;;
51491;SDS011;37569;50.548;8.778;2023-09-19T03:37:07;3.4;;;2;;
51491;SDS011;37569;50.548;8.778;2023-09-19T03:42:08;4.6;;;2.1;;
51491;SDS011;37569;50.548;8.778;2023-09-19T03:47:08;4.7;;;1.8;;
51491;SDS011;37569;50.548;8.778;2023-09-19T03:52:09;3;;;1.9;;
51491;SDS011;37569;50.548;8.778;2023-09-19T03:57:10;4.5;;;2.1;;
51491;SDS011;37569;50.548;8.778;2023-09-19T04:02:11;4.1;;;2;;
51491;SDS011;37569;50.548;8.778;2023-09-19T04:07:11;4.6;;;2.1;;
51491;SDS011;37569;50.548;8.778;2023-09-19T04:12:12;4.5;;;2.1;;
51491;SDS011;37569;50.548;8.778;2023-09-19T04:17:13;4.6;;;2.2;;
51491;SDS011;37569;50.548;8.778;2023-09-19T04:22:14;5;;;2.1;;
51491;SDS011;37569;50.548;8.778;2023-09-19T04:27:14;4.5;;;2;;
51491;SDS011;37569;50.548;8.778;2023-09-19T04:32:15;5.4;;;2.3;;
51491;SDS011;37569;50.548;8.778;2023-09-19T04:37:16;4.5;;;2.3;;
51491;SDS011;37569;50.548;8.778;2023-09-19T04:42:17;6.5;;;2.1;;
51491;SDS011;37569;50.548;8.778;2023-09-19T04:47:17;8.5;;;2.5;;
51491;SDS011;37569;50.548;8.778;2023-09-19T04:52:18;5.9;;;2.1;;
51491;SDS011;37569;50.548;8.778;2023-09-19T04:57:19;7.8;;;2.3;;
51491;SDS011;37569;50.548;8.778;2023-09-19T05:02:19;4.7;;;2.1;;
51491;SDS011;37569;50.548;8.778;2023-09-19T05:07:20;7.3;;;2.5;;
51491;SDS011;37569;50.548;8.778;2023-09-19T05:12:21;7.3;;;2.3;;
51491;SDS011;37569;50.548;8.778;2023-09-19T05:17:21;7.9;;;2.5;;
51491;SDS011;37569;50.548;8.778;2023-09-19T05:22:22;7.1;;;2.4;;
51491;SDS011;37569;50.548;8.778;2023-09-19T05:27:23;6.4;;;2.2;;
51491;SDS011;37569;50.548;8.778;2023-09-19T05:32:23;5.1;;;2.4;;
51491;SDS011;37569;50.548;8.778;2023-09-19T05:37:24;5.8;;;2.4;;
51491;SDS011;37569;50.548;8.778;2023-09-19T05:42:25;5.8;;;2.2;;
51491;SDS011;37569;50.548;8.778;2023-09-19T05:47:25;6.3;;;2.2;;
51491;SDS011;37569;50.548;8.778;2023-09-19T05:52:26;6.7;;;2.2;;
51491;SDS011;37569;50.548;8.778;2023-09-19T05:57:26;5.8;;;2.1;;
51491;SDS011;37569;50.548;8.778;2023-09-19T06:02:27;5.4;;;2.5;;
51491;SDS011;37569;50.548;8.778;2023-09-19T06:07:28;6.5;;;2.6;;
51491;SDS011;37569;50.548;8.778;2023-09-19T06:12:29;7.4;;;2.3;;
51491;SDS011;37569;50.548;8.778;2023-09-19T06:17:29;5.5;;;2.4;;
51491;SDS011;37569;50.548;8.778;2023-09-19T06:22:30;5.7;;;2.2;;
51491;SDS011;37569;50.548;8.778;2023-09-19T06:27:31;7.5;;;2.4;;
51491;SDS011;37569;50.548;8.778;2023-09-19T06:32:31;5.6;;;2.4;;
51491;SDS011;37569;50.548;8.778;2023-09-19T06:37:32;5;;;2;;
51491;SDS011;37569;50.548;8.778;2023-09-19T06:42:33;4.3;;;2;;
51491;SDS011;37569;50.548;8.778;2023-09-19T06:47:33;4.2;;;2.2;;
51491;SDS011;37569;50.548;8.778;2023-09-19T06:52:34;4.9;;;2.1;;
51491;SDS011;37569;50.548;8.778;2023-09-19T06:57:35;7.7;;;2.3;;
51491;SDS011;37569;50.548;8.778;2023-09-19T07:02:35;5.9;;;2.1;;
51491;SDS011;37569;50.548;8.778;2023-09-19T07:07:36;5.9;;;2.1;;
51491;SDS011;37569;50.548;8.778;2023-09-19T07:12:37;5.5;;;2.3;;
51491;SDS011;37569;50.548;8.778;2023-09-19T07:17:38;4.5;;;2.1;;
51491;SDS011;37569;50.548;8.778;2023-09-19T07:22:38;4.9;;;2.1;;
51491;SDS011;37569;50.548;8.778;2023-09-19T07:27:39;2.7;;;1.7;;
51491;SDS011;37569;50.548;8.778;2023-09-19T07:32:40;5.3;;;1.9;;
51491;SDS011;37569;50.548;8.778;2023-09-19T07:37:41;5.3;;;2.1;;
51491;SDS011;37569;50.548;8.778;2023-09-19T07:42:42;4.8;;;2;;
51491;SDS011;37569;50.548;8.778;2023-09-19T07:47:43;5.9;;;2;;
51491;SDS011;37569;50.548;8.778;2023-09-19T07:52:43;4.9;;;1.9;;
51491;SDS011;37569;50.548;8.778;2023-09-19T07:57:44;6.4;;;2.1;;
51491;SDS011;37569;50.548;8.778;2023-09-19T08:02:45;6.2;;;1.9;;
51491;SDS011;37569;50.548;8.778;2023-09-19T08:07:46;6.9;;;2.2;;
51491;SDS011;37569;50.548;8.778;2023-09-19T08:12:47;5.4;;;1.9;;
51491;SDS011;37569;50.548;8.778;2023-09-19T08:17:47;5.4;;;1.9;;
51491;SDS011;37569;50.548;8.778;2023-09-19T08:22:48;4.3;;;2;;
51491;SDS011;37569;50.548;8.778;2023-09-19T08:27:49;4.1;;;1.9;;
51491;SDS011;37569;50.548;8.778;2023-09-19T08:32:50;5.8;;;1.9;;
51491;SDS011;37569;50.548;8.778;2023-09-19T08:37:50;6.9;;;2.2;;
51491;SDS011;37569;50.548;8.778;2023-09-19T08:42:52;6.1;;;2.1;;
51491;SDS011;37569;50.548;8.778;2023-09-19T08:47:55;6.1;;;2.1;;
51491;SDS011;37569;50.548;8.778;2023-09-19T08:52:53;6;;;2.3;;
51491;SDS011;37569;50.548;8.778;2023-09-19T08:57:56;6.1;;;2;;
51491;SDS011;37569;50.548;8.778;2023-09-19T09:02:55;5.2;;;2.1;;
51491;SDS011;37569;50.548;8.778;2023-09-19T09:07:55;4.8;;;2;;
51491;SDS011;37569;50.548;8.778;2023-09-19T09:12:57;6;;;2.1;;
51491;SDS011;37569;50.548;8.778;2023-09-19T09:17:57;5.6;;;2.1;;
51491;SDS011;37569;50.548;8.778;2023-09-19T09:22:58;4.3;;;2.1;;
51491;SDS011;37569;50.548;8.778;2023-09-19T09:28:00;4.1;;;2.1;;
51491;SDS011;37569;50.548;8.778;2023-09-19T09:33:08;5.4;;;2.2;;
51491;SDS011;37569;50.548;8.778;2023-09-19T09:38:01;4.9;;;2.1;;
51491;SDS011;37569;50.548;8.778;2023-09-19T09:43:02;7.5;;;2.2;;
51491;SDS011;37569;50.548;8.778;2023-09-19T09:48:03;6.1;;;2.1;;
51491;SDS011;37569;50.548;8.778;2023-09-19T09:53:04;6;;;2.3;;
51491;SDS011;37569;50.548;8.778;2023-09-19T09:58:20;7.1;;;2.5;;
51491;SDS011;37569;50.548;8.778;2023-09-19T10:03:09;6.1;;;2.3;;
51491;SDS011;37569;50.548;8.778;2023-09-19T10:08:10;4.2;;;2.1;;
51491;SDS011;37569;50.548;8.778;2023-09-19T10:13:08;5.8;;;2.3;;
51491;SDS011;37569;50.548;8.778;2023-09-19T10:18:10;5.9;;;2.4;;
51491;SDS011;37569;50.548;8.778;2023-09-19T10:23:10;5.6;;;2.4;;
51491;SDS011;37569;50.548;8.778;2023-09-19T10:28:11;5.9;;;2.3;;
51491;SDS011;37569;50.548;8.778;2023-09-19T10:33:11;5.7;;;2.4;;
51491;SDS011;37569;50.548;8.778;2023-09-19T10:38:12;7.9;;;2.5;;
51491;SDS011;37569;50.548;8.778;2023-09-19T10:43:15;6.7;;;2.6;;
51491;SDS011;37569;50.548;8.778;2023-09-19T10:48:14;5.4;;;2.4;;
51491;SDS011;37569;50.548;8.778;2023-09-19T10:53:15;6.2;;;2.5;;
51491;SDS011;37569;50.548;8.778;2023-09-19T10:58:23;5.7;;;2.3;;
51491;SDS011;37569;50.548;8.778;2023-09-19T11:03:17;5.7;;;2.4;;
51491;SDS011;37569;50.548;8.778;2023-09-19T11:08:18;5.8;;;2.4;;
51491;SDS011;37569;50.548;8.778;2023-09-19T11:13:26;7.7;;;2.8;;
51491;SDS011;37569;50.548;8.778;2023-09-19T11:18:51;5;;;2.2;;
51491;SDS011;37569;50.548;8.778;2023-09-19T11:23:21;6.7;;;2.4;;
51491;SDS011;37569;50.548;8.778;2023-09-19T11:28:37;6.9;;;2.4;;
51491;SDS011;37569;50.548;8.778;2023-09-19T11:33:23;4.7;;;2.6;;
51491;SDS011;37569;50.548;8.778;2023-09-19T11:38:39;6;;;2.5;;
51491;SDS011;37569;50.548;8.778;2023-09-19T11:43:27;7.7;;;2.6;;
51491;SDS011;37569;50.548;8.778;2023-09-19T11:48:25;5.2;;;2.4;;
51491;SDS011;37569;50.548;8.778;2023-09-19T11:53:30;7.8;;;2.6;;
51491;SDS011;37569;50.548;8.778;2023-09-19T11:58:27;5;;;2.5;;
51491;SDS011;37569;50.548;8.778;2023-09-19T12:03:29;7;;;2.7;;
51491;SDS011;37569;50.548;8.778;2023-09-19T12:08:29;6.7;;;2.6;;
51491;SDS011;37569;50.548;8.778;2023-09-19T12:13:30;7.3;;;2.9;;
51491;SDS011;37569;50.548;8.778;2023-09-19T12:18:31;6.6;;;2.6;;
51491;SDS011;37569;50.548;8.778;2023-09-19T12:23:31;6.6;;;2.6;;
51491;SDS011;37569;50.548;8.778;2023-09-19T12:28:38;8.7;;;2.8;;
51491;SDS011;37569;50.548;8.778;2023-09-19T12:33:33;7.2;;;2.7;;
51491;SDS011;37569;50.548;8.778;2023-09-19T12:38:34;6.2;;;2.5;;
51491;SDS011;37569;50.548;8.778;2023-09-19T12:43:35;5.8;;;2.4;;
51491;SDS011;37569;50.548;8.778;2023-09-19T12:48:36;5.8;;;2.4;;
51491;SDS011;37569;50.548;8.778;2023-09-19T12:53:37;4.8;;;2.5;;
51491;SDS011;37569;50.548;8.778;2023-09-19T12:58:54;6.4;;;2.5;;
51491;SDS011;37569;50.548;8.778;2023-09-19T13:03:39;7.2;;;2.5;;
51491;SDS011;37569;50.548;8.778;2023-09-19T13:08:40;4.8;;;2.6;;
51491;SDS011;37569;50.548;8.778;2023-09-19T13:13:41;5.4;;;2.5;;
51491;SDS011;37569;50.548;8.778;2023-09-19T13:18:43;5.1;;;2.4;;
51491;SDS011;37569;50.548;8.778;2023-09-19T13:23:43;5.7;;;2.5;;
51491;SDS011;37569;50.548;8.778;2023-09-19T13:28:44;7.2;;;2.7;;
51491;SDS011;37569;50.548;8.778;2023-09-19T13:33:45;5.7;;;2.4;;
51491;SDS011;37569;50.548;8.778;2023-09-19T13:38:46;6;;;2.4;;
51491;SDS011;37569;50.548;8.778;2023-09-19T13:43:47;6.1;;;2.5;;
51491;SDS011;37569;50.548;8.778;2023-09-19T13:48:48;4.4;;;2.2;;
51491;SDS011;37569;50.548;8.778;2023-09-19T13:53:49;6.7;;;2.2;;
51491;SDS011;37569;50.548;8.778;2023-09-19T13:58:50;6.7;;;2.3;;
51491;SDS011;37569;50.548;8.778;2023-09-19T14:03:51;4.1;;;2.1;;
51491;SDS011;37569;50.548;8.778;2023-09-19T14:08:52;5.9;;;2.3;;
51491;SDS011;37569;50.548;8.778;2023-09-19T14:13:53;5.8;;;2.3;;
51491;SDS011;37569;50.548;8.778;2023-09-19T14:18:54;6;;;2.2;;
51491;SDS011;37569;50.548;8.778;2023-09-19T14:23:54;7.4;;;2.2;;
51491;SDS011;37569;50.548;8.778;2023-09-19T14:28:55;5.3;;;2.2;;
51491;SDS011;37569;50.548;8.778;2023-09-19T14:33:57;4.4;;;2;;
51491;SDS011;37569;50.548;8.778;2023-09-19T14:38:57;4.4;;;2.1;;
51491;SDS011;37569;50.548;8.778;2023-09-19T14:43:58;4;;;1.9;;
51491;SDS011;37569;50.548;8.778;2023-09-19T14:48:59;5.8;;;2.2;;
51491;SDS011;37569;50.548;8.778;2023-09-19T14:54:00;4.9;;;2.1;;
51491;SDS011;37569;50.548;8.778;2023-09-19T14:59:01;5.9;;;2.1;;
51491;SDS011;37569;50.548;8.778;2023-09-19T15:04:02;4.6;;;1.9;;
51491;SDS011;37569;50.548;8.778;2023-09-19T15:09:03;4.6;;;2.1;;
51491;SDS011;37569;50.548;8.778;2023-09-19T15:14:04;3.8;;;2;;
51491;SDS011;37569;50.548;8.778;2023-09-19T15:19:05;6.4;;;2.1;;
51491;SDS011;37569;50.548;8.778;2023-09-19T15:24:06;4;;;1.8;;
51491;SDS011;37569;50.548;8.778;2023-09-19T15:29:07;3.2;;;1.8;;
51491;SDS011;37569;50.548;8.778;2023-09-19T15:34:08;5.5;;;1.9;;
51491;SDS011;37569;50.548;8.778;2023-09-19T15:39:09;3.5;;;1.9;;
51491;SDS011;37569;50.548;8.778;2023-09-19T15:44:11;5.3;;;2;;
51491;SDS011;37569;50.548;8.778;2023-09-19T15:49:11;5.4;;;2.3;;
51491;SDS011;37569;50.548;8.778;2023-09-19T15:54:13;5.1;;;2;;
51491;SDS011;37569;50.548;8.778;2023-09-19T15:59:13;7.1;;;2;;
51491;SDS011;37569;50.548;8.778;2023-09-19T16:04:14;4.8;;;1.9;;
51491;SDS011;37569;50.548;8.778;2023-09-19T16:09:15;4;;;1.9;;
51491;SDS011;37569;50.548;8.778;2023-09-19T16:14:16;4.3;;;1.7;;
51491;SDS011;37569;50.548;8.778;2023-09-19T16:19:17;4.5;;;2;;
51491;SDS011;37569;50.548;8.778;2023-09-19T16:24:17;4.9;;;2;;
51491;SDS011;37569;50.548;8.778;2023-09-19T16:29:18;6.5;;;2;;
51491;SDS011;37569;50.548;8.778;2023-09-19T16:34:19;4;;;1.9;;
51491;SDS011;37569;50.548;8.778;2023-09-19T16:39:20;3.8;;;1.8;;
51491;SDS011;37569;50.548;8.778;2023-09-19T16:44:21;5.3;;;2.2;;
51491;SDS011;37569;50.548;8.778;2023-09-19T16:49:22;4.1;;;2.2;;
51491;SDS011;37569;50.548;8.778;2023-09-19T16:54:23;4.1;;;1.9;;
51491;SDS011;37569;50.548;8.778;2023-09-19T16:59:24;4.8;;;2;;
51491;SDS011;37569;50.548;8.778;2023-09-19T17:04:25;4.1;;;1.9;;
51491;SDS011;37569;50.548;8.778;2023-09-19T17:09:26;4.4;;;1.8;;
51491;SDS011;37569;50.548;8.778;2023-09-19T17:14:27;5.2;;;1.8;;
51491;SDS011;37569;50.548;8.778;2023-09-19T17:19:28;4.8;;;1.9;;
51491;SDS011;37569;50.548;8.778;2023-09-19T17:24:28;4.9;;;2;;
51491;SDS011;37569;50.548;8.778;2023-09-19T17:29:29;3.2;;;1.6;;
51491;SDS011;37569;50.548;8.778;2023-09-19T17:34:30;3.8;;;1.9;;
51491;SDS011;37569;50.548;8.778;2023-09-19T17:39:31;6.5;;;1.8;;
51491;SDS011;37569;50.548;8.778;2023-09-19T17:44:32;4.3;;;1.8;;
51491;SDS011;37569;50.548;8.778;2023-09-19T17:49:33;4.6;;;1.7;;
51491;SDS011;37569;50.548;8.778;2023-09-19T17:54:33;4;;;1.7;;
51491;SDS011;37569;50.548;8.778;2023-09-19T17:59:34;4.3;;;1.7;;
51491;SDS011;37569;50.548;8.778;2023-09-19T18:04:35;5;;;1.9;;
51491;SDS011;37569;50.548;8.778;2023-09-19T18:09:36;4.5;;;1.7;;
51491;SDS011;37569;50.548;8.778;2023-09-19T18:14:37;5.1;;;1.7;;
51491;SDS011;37569;50.548;8.778;2023-09-19T18:19:38;4.9;;;2;;
51491;SDS011;37569;50.548;8.778;2023-09-19T18:24:38;3.7;;;1.5;;
51491;SDS011;37569;50.548;8.778;2023-09-19T18:29:39;5.4;;;1.9;;
51491;SDS011;37569;50.548;8.778;2023-09-19T18:34:40;3.4;;;1.7;;
51491;SDS011;37569;50.548;8.778;2023-09-19T18:39:41;5;;;1.9;;
51491;SDS011;37569;50.548;8.778;2023-09-19T18:44:42;4;;;1.7;;
51491;SDS011;37569;50.548;8.778;2023-09-19T18:49:42;4.2;;;1.9;;
51491;SDS011;37569;50.548;8.778;2023-09-19T18:54:43;3.2;;;1.6;;
51491;SDS011;37569;50.548;8.778;2023-09-19T18:59:44;5.4;;;1.9;;
51491;SDS011;37569;50.548;8.778;2023-09-19T19:04:45;4.2;;;1.7;;
51491;SDS011;37569;50.548;8.778;2023-09-19T19:09:45;4.2;;;1.7;;
51491;SDS011;37569;50.548;8.778;2023-09-19T19:14:46;5.2;;;1.8;;
51491;SDS011;37569;50.548;8.778;2023-09-19T19:19:47;4.1;;;1.8;;
51491;SDS011;37569;50.548;8.778;2023-09-19T19:24:48;3.5;;;1.9;;
51491;SDS011;37569;50.548;8.778;2023-09-19T19:29:49;5.9;;;2;;
51491;SDS011;37569;50.548;8.778;2023-09-19T19:34:49;3.7;;;1.8;;
51491;SDS011;37569;50.548;8.778;2023-09-19T19:39:50;3.9;;;1.8;;
51491;SDS011;37569;50.548;8.778;2023-09-19T19:44:51;3.8;;;1.8;;
51491;SDS011;37569;50.548;8.778;2023-09-19T19:49:52;4.7;;;1.8;;
51491;SDS011;37569;50.548;8.778;2023-09-19T19:54:52;3.3;;;1.7;;
51491;SDS011;37569;50.548;8.778;2023-09-19T19:59:53;5.3;;;1.9;;
51491;SDS011;37569;50.548;8.778;2023-09-19T20:04:54;4.2;;;1.8;;
51491;SDS011;37569;50.548;8.778;2023-09-19T20:09:55;3.6;;;1.8;;
51491;SDS011;37569;50.548;8.778;2023-09-19T20:14:55;4.3;;;1.7;;
51491;SDS011;37569;50.548;8.778;2023-09-19T20:19:56;3.3;;;1.7;;
51491;SDS011;37569;50.548;8.778;2023-09-19T20:24:57;4;;;1.7;;
51491;SDS011;37569;50.548;8.778;2023-09-19T20:29:58;3.7;;;1.9;;
51491;SDS011;37569;50.548;8.778;2023-09-19T20:34:58;4.3;;;2;;
51491;SDS011;37569;50.548;8.778;2023-09-19T20:39:59;4.6;;;1.8;;
51491;SDS011;37569;50.548;8.778;2023-09-19T20:45:00;4;;;1.9;;
51491;SDS011;37569;50.548;8.778;2023-09-19T20:50:01;4.3;;;2;;
51491;SDS011;37569;50.548;8.778;2023-09-19T20:55:01;3.4;;;1.9;;
51491;SDS011;37569;50.548;8.778;2023-09-19T21:00:02;3.7;;;1.9;;
51491;SDS011;37569;50.548;8.778;2023-09-19T21:05:03;3.2;;;1.9;;
51491;SDS011;37569;50.548;8.778;2023-09-19T21:10:04;4.3;;;1.8;;
51491;SDS011;37569;50.548;8.778;2023-09-19T21:15:05;4.1;;;1.7;;
51491;SDS011;37569;50.548;8.778;2023-09-19T21:20:05;4.4;;;2.2;;
51491;SDS011;37569;50.548;8.778;2023-09-19T21:25:06;3;;;2;;
51491;SDS011;37569;50.548;8.778;2023-09-19T21:30:07;5;;;2.1;;
51491;SDS011;37569;50.548;8.778;2023-09-19T21:35:07;4;;;1.9;;
51491;SDS011;37569;50.548;8.778;2023-09-19T21:40:08;3.9;;;1.7;;
51491;SDS011;37569;50.548;8.778;2023-09-19T21:45:08;3.4;;;2;;
51491;SDS011;37569;50.548;8.778;2023-09-19T21:50:09;3.3;;;1.9;;
51491;SDS011;37569;50.548;8.778;2023-09-19T21:55:10;3.5;;;2;;
51491;SDS011;37569;50.548;8.778;2023-09-19T22:00:11;3.9;;;1.7;;
51491;SDS011;37569;50.548;8.778;2023-09-19T22:05:11;3.3;;;2;;
51491;SDS011;37569;50.548;8.778;2023-09-19T22:10:12;4.3;;;2.2;;
51491;SDS011;37569;50.548;8.778;2023-09-19T22:15:13;4.1;;;1.9;;
51491;SDS011;37569;50.548;8.778;2023-09-19T22:20:13;5;;;2.2;;
51491;SDS011;37569;50.548;8.778;2023-09-19T22:25:14;2.7;;;1.8;;
51491;SDS011;37569;50.548;8.778;2023-09-19T22:30:15;3.5;;;1.8;;
51491;SDS011;37569;50.548;8.778;2023-09-19T22:35:15;3.4;;;2;;
51491;SDS011;37569;50.548;8.778;2023-09-19T22:40:16;4.4;;;2.1;;
51491;SDS011;37569;50.548;8.778;2023-09-19T22:45:17;3.8;;;1.7;;
51491;SDS011;37569;50.548;8.778;2023-09-19T22:50:18;4.2;;;2.1;;
51491;SDS011;37569;50.548;8.778;2023-09-19T22:55:18;4.4;;;2;;
51491;SDS011;37569;50.548;8.778;2023-09-19T23:00:19;3.5;;;1.8;;
51491;SDS011;37569;50.548;8.778;2023-09-19T23:05:20;4.1;;;2;;
51491;SDS011;37569;50.548;8.778;2023-09-19T23:10:20;3.6;;;1.9;;
51491;SDS011;37569;50.548;8.778;2023-09-19T23:15:21;4.2;;;2;;
51491;SDS011;37569;50.548;8.778;2023-09-19T23:20:22;3.3;;;2;;
51491;SDS011;37569;50.548;8.778;2023-09-19T23:25:22;3.8;;;2;;
51491;SDS011;37569;50.548;8.778;2023-09-19T23:30:23;2.5;;;1.9;;
51491;SDS011;37569;50.548;8.778;2023-09-19T23:35:24;4.1;;;2;;
51491;SDS011;37569;50.548;8.778;2023-09-19T23:40:25;2.7;;;2;;
51491;SDS011;37569;50.548;8.778;2023-09-19T23:45:25;3.5;;;1.9;;
51491;SDS011;37569;50.548;8.778;2023-09-19T23:50:26;3.7;;;1.9;;
51491;SDS011;37569;50.548;8.778;2023-09-19T23:55:27;3.1;;;1.8;;
